createdAt,value
2023-02-18T00:00:59.244Z,1009.69
2023-02-18T00:01:59.234Z,1009.73
2023-02-18T00:02:59.220Z,1009.67
2023-02-18T00:03:59.215Z,1009.65
2023-02-18T00:04:59.212Z,1009.78
2023-02-18T00:05:59.185Z,1009.60
2023-02-18T00:06:59.174Z,1009.69
2023-02-18T00:07:59.155Z,1009.68
2023-02-18T00:08:59.174Z,1009.72
2023-02-18T00:09:59.135Z,1009.62
2023-02-18T00:10:59.126Z,1009.78
2023-02-18T00:11:59.113Z,1009.59
2023-02-18T00:12:59.104Z,1009.69
2023-02-18T00:13:59.101Z,1009.62
2023-02-18T00:14:59.086Z,1009.68
2023-02-18T00:15:59.108Z,1009.76
2023-02-18T00:16:59.050Z,1009.70
2023-02-18T00:17:59.050Z,1009.74
2023-02-18T00:18:59.048Z,1009.59
2023-02-18T00:19:59.020Z,1009.77
2023-02-18T00:20:59.008Z,1009.69
2023-02-18T00:21:58.999Z,1009.71
2023-02-18T00:22:59.011Z,1009.68
2023-02-18T00:23:58.971Z,1009.74
2023-02-18T00:24:59.099Z,1009.74
2023-02-18T00:25:58.945Z,1009.79
2023-02-18T00:26:58.935Z,1009.80
2023-02-18T00:27:58.937Z,1009.80
2023-02-18T00:28:58.929Z,1009.91
2023-02-18T00:29:58.937Z,1009.85
2023-02-18T00:30:58.955Z,1009.89
2023-02-18T00:31:58.970Z,1009.88
2023-02-18T00:32:58.871Z,1009.92
2023-02-18T00:33:58.863Z,1009.78
2023-02-18T00:34:58.845Z,1009.87
2023-02-18T00:35:58.836Z,1009.81
2023-02-18T00:36:58.825Z,1009.81
2023-02-18T00:37:58.813Z,1009.90
2023-02-18T00:38:58.806Z,1009.92
2023-02-18T00:39:58.794Z,1009.88
2023-02-18T00:40:58.800Z,1009.88
2023-02-18T00:41:58.761Z,1009.90
2023-02-18T00:42:58.759Z,1010.01
2023-02-18T00:43:58.748Z,1009.92
2023-02-18T00:44:58.726Z,1010.01
2023-02-18T00:45:58.754Z,1009.96
2023-02-18T00:46:58.720Z,1009.99
2023-02-18T00:47:58.699Z,1010.07
2023-02-18T00:48:58.687Z,1010.06
2023-02-18T00:49:58.680Z,1009.96
2023-02-18T00:50:58.664Z,1010.07
2023-02-18T00:51:58.651Z,1009.95
2023-02-18T00:52:58.645Z,1010.07
2023-02-18T00:53:58.631Z,1010.13
2023-02-18T00:54:58.625Z,1010.18
2023-02-18T00:55:58.604Z,1010.23
2023-02-18T00:56:58.614Z,1010.26
2023-02-18T00:57:58.612Z,1010.24
2023-02-18T00:58:58.581Z,1010.21
2023-02-18T00:59:58.557Z,1010.14
2023-02-18T01:00:58.552Z,1010.16
2023-02-18T01:01:58.581Z,1010.20
2023-02-18T01:02:58.530Z,1010.14
2023-02-18T01:03:58.522Z,1010.12
2023-02-18T01:04:58.546Z,1010.12
2023-02-18T01:05:58.506Z,1010.18
2023-02-18T01:06:58.479Z,1010.14
2023-02-18T01:07:58.467Z,1010.22
2023-02-18T01:08:58.461Z,1010.19
2023-02-18T01:09:58.459Z,1010.18
2023-02-18T01:10:58.440Z,1010.15
2023-02-18T01:11:58.428Z,1010.14
2023-02-18T01:12:58.438Z,1010.14
2023-02-18T01:13:58.408Z,1010.05
2023-02-18T01:14:58.388Z,1010.10
2023-02-18T01:15:58.441Z,1009.99
2023-02-18T01:16:58.364Z,1010.02
2023-02-18T01:17:58.370Z,1010.03
2023-02-18T01:18:58.371Z,1010.03
2023-02-18T01:19:58.344Z,1009.99
2023-02-18T01:20:58.318Z,1010.01
2023-02-18T01:21:58.320Z,1010.05
2023-02-18T01:22:58.309Z,1010.00
2023-02-18T01:23:58.288Z,1010.04
2023-02-18T01:24:58.330Z,1010.10
2023-02-18T01:25:58.262Z,1010.11
2023-02-18T01:26:58.258Z,1010.09
2023-02-18T01:27:58.252Z,1010.17
2023-02-18T01:28:58.251Z,1010.10
2023-02-18T01:29:58.282Z,1010.03
2023-02-18T01:30:58.254Z,1010.20
2023-02-18T01:31:58.305Z,1010.10
2023-02-18T01:32:58.188Z,1010.19
2023-02-18T01:33:58.169Z,1010.18
2023-02-18T01:34:58.166Z,1010.13
2023-02-18T01:35:58.144Z,1010.10
2023-02-18T01:36:58.143Z,1010.13
2023-02-18T01:37:58.132Z,1010.08
2023-02-18T01:38:58.108Z,1010.09
2023-02-18T01:39:58.108Z,1010.06
2023-02-18T01:40:58.091Z,1010.05
2023-02-18T01:41:58.072Z,1010.09
2023-02-18T01:42:58.069Z,1010.07
2023-02-18T01:43:58.049Z,1010.01
2023-02-18T01:44:58.065Z,1010.07
2023-02-18T01:45:58.038Z,1009.99
2023-02-18T01:46:58.064Z,1010.08
2023-02-18T01:47:58.012Z,1010.00
2023-02-18T01:48:58.008Z,1010.07
2023-02-18T01:49:57.985Z,1010.07
2023-02-18T01:50:57.977Z,1010.13
2023-02-18T01:51:57.962Z,1010.09
2023-02-18T01:52:57.954Z,1010.11
2023-02-18T01:53:57.933Z,1010.14
2023-02-18T01:54:57.932Z,1010.09
2023-02-18T01:55:57.914Z,1010.13
2023-02-18T01:56:57.937Z,1010.12
2023-02-18T01:57:57.891Z,1010.16
2023-02-18T01:58:57.875Z,1010.14
2023-02-18T01:59:57.971Z,1010.19
2023-02-18T02:00:57.945Z,1010.16
2023-02-18T02:01:57.915Z,1010.06
2023-02-18T02:02:57.836Z,1010.03
2023-02-18T02:03:57.824Z,1010.03
2023-02-18T02:04:57.814Z,1010.06
2023-02-18T02:05:57.811Z,1010.05
2023-02-18T02:06:57.792Z,1010.01
2023-02-18T02:07:57.792Z,1010.00
2023-02-18T02:08:57.767Z,1010.04
2023-02-18T02:09:57.792Z,1010.08
2023-02-18T02:10:57.750Z,1010.11
2023-02-18T02:11:57.733Z,1010.18
2023-02-18T02:12:57.729Z,1010.16
2023-02-18T02:13:57.709Z,1010.07
2023-02-18T02:14:57.707Z,1010.12
2023-02-18T02:15:57.730Z,1010.06
2023-02-18T02:16:57.707Z,1010.16
2023-02-18T02:17:57.681Z,1010.23
2023-02-18T02:18:57.667Z,1010.18
2023-02-18T02:19:57.643Z,1010.25
2023-02-18T02:20:57.665Z,1010.30
2023-02-18T02:21:57.627Z,1010.11
2023-02-18T02:22:57.624Z,1010.19
2023-02-18T02:23:57.602Z,1010.21
2023-02-18T02:24:57.588Z,1010.17
2023-02-18T02:25:57.598Z,1010.18
2023-02-18T02:26:57.577Z,1010.24
2023-02-18T02:27:57.558Z,1010.13
2023-02-18T02:28:57.560Z,1010.16
2023-02-18T02:29:57.574Z,1010.29
2023-02-18T02:30:57.634Z,1010.20
2023-02-18T02:31:57.552Z,1010.19
2023-02-18T02:32:57.523Z,1010.21
2023-02-18T02:33:57.490Z,1010.19
2023-02-18T02:34:57.486Z,1010.15
2023-02-18T02:35:57.487Z,1010.14
2023-02-18T02:36:57.482Z,1010.30
2023-02-18T02:37:57.459Z,1010.22
2023-02-18T02:38:57.438Z,1010.14
2023-02-18T02:39:57.441Z,1010.18
2023-02-18T02:40:57.409Z,1010.18
2023-02-18T02:41:57.405Z,1010.15
2023-02-18T02:42:57.386Z,1010.27
2023-02-18T02:43:57.383Z,1010.20
2023-02-18T02:44:57.378Z,1010.19
2023-02-18T02:45:57.397Z,1010.18
2023-02-18T02:46:57.345Z,1010.17
2023-02-18T02:47:57.334Z,1010.10
2023-02-18T02:48:57.357Z,1010.21
2023-02-18T02:49:57.322Z,1010.12
2023-02-18T02:50:57.303Z,1010.22
2023-02-18T02:51:57.306Z,1010.23
2023-02-18T02:52:57.285Z,1010.26
2023-02-18T02:53:57.277Z,1010.23
2023-02-18T02:54:57.327Z,1010.26
2023-02-18T02:55:57.255Z,1010.25
2023-02-18T02:56:57.241Z,1010.12
2023-02-18T02:57:57.236Z,1010.20
2023-02-18T02:58:57.225Z,1010.16
2023-02-18T02:59:57.206Z,1010.28
2023-02-18T03:00:57.343Z,1010.17
2023-02-18T03:01:57.196Z,1010.30
2023-02-18T03:02:57.236Z,1010.32
2023-02-18T03:03:57.164Z,1010.30
2023-02-18T03:04:57.189Z,1010.41
2023-02-18T03:05:57.146Z,1010.31
2023-02-18T03:06:57.140Z,1010.27
2023-02-18T03:07:57.129Z,1010.29
2023-02-18T03:08:57.110Z,1010.24
2023-02-18T03:09:57.109Z,1010.27
2023-02-18T03:10:57.109Z,1010.20
2023-02-18T03:11:57.084Z,1010.26
2023-02-18T03:12:57.079Z,1010.31
2023-02-18T03:13:57.078Z,1010.21
2023-02-18T03:14:57.054Z,1010.17
2023-02-18T03:15:57.046Z,1010.19
2023-02-18T03:16:57.036Z,1010.25
2023-02-18T03:17:57.023Z,1010.14
2023-02-18T03:18:57.013Z,1010.11
2023-02-18T03:19:57.026Z,1010.14
2023-02-18T03:20:57.014Z,1010.13
2023-02-18T03:21:56.977Z,1010.19
2023-02-18T03:22:56.960Z,1010.12
2023-02-18T03:23:56.958Z,1010.23
2023-02-18T03:24:56.953Z,1010.21
2023-02-18T03:25:56.927Z,1010.21
2023-02-18T03:26:56.923Z,1010.17
2023-02-18T03:27:56.911Z,1010.13
2023-02-18T03:28:56.900Z,1010.27
2023-02-18T03:29:56.974Z,1010.16
2023-02-18T03:30:56.890Z,1010.19
2023-02-18T03:31:57.007Z,1010.18
2023-02-18T03:32:56.867Z,1010.18
2023-02-18T03:33:56.842Z,1010.11
2023-02-18T03:34:56.834Z,1010.01
2023-02-18T03:35:56.849Z,1010.18
2023-02-18T03:36:56.834Z,1010.12
2023-02-18T03:37:56.817Z,1010.10
2023-02-18T03:38:56.796Z,1010.10
2023-02-18T03:39:56.786Z,1010.11
2023-02-18T03:40:56.781Z,1010.07
2023-02-18T03:41:56.759Z,1010.05
2023-02-18T03:42:56.763Z,1010.06
2023-02-18T03:43:56.732Z,1010.03
2023-02-18T03:44:56.724Z,1010.05
2023-02-18T03:45:56.768Z,1010.06
2023-02-18T03:46:56.703Z,1010.07
2023-02-18T03:47:56.687Z,1010.10
2023-02-18T03:48:56.692Z,1010.05
2023-02-18T03:49:56.674Z,1010.08
2023-02-18T03:50:56.664Z,1010.04
2023-02-18T03:51:56.651Z,1010.08
2023-02-18T03:52:56.666Z,1010.15
2023-02-18T03:53:56.635Z,1010.16
2023-02-18T03:54:56.628Z,1010.08
2023-02-18T03:55:56.606Z,1010.08
2023-02-18T03:56:56.589Z,1010.09
2023-02-18T03:57:56.586Z,1010.02
2023-02-18T03:58:56.565Z,1010.06
2023-02-18T03:59:56.569Z,1010.07
2023-02-18T04:00:56.589Z,1010.10
2023-02-18T04:01:56.550Z,1010.10
2023-02-18T04:02:56.532Z,1010.11
2023-02-18T04:03:56.581Z,1010.17
2023-02-18T04:04:56.499Z,1010.18
2023-02-18T04:05:56.497Z,1010.08
2023-02-18T04:06:56.487Z,1010.12
2023-02-18T04:07:56.466Z,1010.20
2023-02-18T04:08:56.491Z,1010.21
2023-02-18T04:09:56.443Z,1010.14
2023-02-18T04:10:56.446Z,1010.13
2023-02-18T04:11:56.429Z,1010.13
2023-02-18T04:12:56.434Z,1010.18
2023-02-18T04:13:56.409Z,1010.22
2023-02-18T04:14:56.390Z,1010.20
2023-02-18T04:15:56.386Z,1010.27
2023-02-18T04:16:56.466Z,1010.19
2023-02-18T04:17:56.365Z,1010.21
2023-02-18T04:18:56.360Z,1010.30
2023-02-18T04:19:56.341Z,1010.20
2023-02-18T04:20:56.324Z,1010.23
2023-02-18T04:21:56.383Z,1010.20
2023-02-18T04:22:56.410Z,1010.28
2023-02-18T04:23:56.297Z,1010.18
2023-02-18T04:24:56.303Z,1010.24
2023-02-18T04:25:56.280Z,1010.28
2023-02-18T04:26:56.262Z,1010.32
2023-02-18T04:27:56.246Z,1010.31
2023-02-18T04:28:56.245Z,1010.33
2023-02-18T04:29:56.412Z,1010.29
2023-02-18T04:30:56.264Z,1010.38
2023-02-18T04:31:56.246Z,1010.30
2023-02-18T04:32:56.218Z,1010.33
2023-02-18T04:33:56.201Z,1010.42
2023-02-18T04:34:56.175Z,1010.45
2023-02-18T04:35:56.176Z,1010.39
2023-02-18T04:36:56.166Z,1010.40
2023-02-18T04:37:56.141Z,1010.33
2023-02-18T04:38:56.138Z,1010.39
2023-02-18T04:39:56.132Z,1010.40
2023-02-18T04:40:56.144Z,1010.39
2023-02-18T04:41:56.103Z,1010.36
2023-02-18T04:42:56.087Z,1010.39
2023-02-18T04:43:56.088Z,1010.37
2023-02-18T04:44:56.066Z,1010.39
2023-02-18T04:45:56.076Z,1010.48
2023-02-18T04:46:56.045Z,1010.39
2023-02-18T04:47:56.028Z,1010.43
2023-02-18T04:48:56.026Z,1010.39
2023-02-18T04:49:56.020Z,1010.45
2023-02-18T04:50:55.996Z,1010.43
2023-02-18T04:51:55.993Z,1010.45
2023-02-18T04:52:55.975Z,1010.41
2023-02-18T04:53:55.974Z,1010.40
2023-02-18T04:54:55.965Z,1010.42
2023-02-18T04:55:55.943Z,1010.42
2023-02-18T04:56:55.965Z,1010.42
2023-02-18T04:57:55.919Z,1010.41
2023-02-18T04:58:55.914Z,1010.49
2023-02-18T04:59:55.909Z,1010.42
2023-02-18T05:00:55.888Z,1010.44
2023-02-18T05:01:55.887Z,1010.36
2023-02-18T05:02:55.867Z,1010.45
2023-02-18T05:03:55.904Z,1010.46
2023-02-18T05:04:55.849Z,1010.49
2023-02-18T05:05:55.844Z,1010.51
2023-02-18T05:06:55.826Z,1010.48
2023-02-18T05:07:55.815Z,1010.52
2023-02-18T05:08:55.813Z,1010.43
2023-02-18T05:09:55.801Z,1010.50
2023-02-18T05:10:55.794Z,1010.48
2023-02-18T05:11:55.780Z,1010.49
2023-02-18T05:12:55.809Z,1010.47
2023-02-18T05:13:55.761Z,1010.50
2023-02-18T05:14:55.748Z,1010.48
2023-02-18T05:15:55.774Z,1010.46
2023-02-18T05:16:55.730Z,1010.42
2023-02-18T05:17:55.708Z,1010.45
2023-02-18T05:18:55.705Z,1010.41
2023-02-18T05:19:55.688Z,1010.38
2023-02-18T05:20:55.689Z,1010.42
2023-02-18T05:21:55.673Z,1010.47
2023-02-18T05:22:55.662Z,1010.39
2023-02-18T05:23:55.651Z,1010.41
2023-02-18T05:24:55.646Z,1010.47
2023-02-18T05:25:55.657Z,1010.45
2023-02-18T05:26:55.614Z,1010.33
2023-02-18T05:27:55.620Z,1010.39
2023-02-18T05:28:55.619Z,1010.34
2023-02-18T05:29:55.590Z,1010.35
2023-02-18T05:30:55.585Z,1010.38
2023-02-18T05:31:55.604Z,1010.38
2023-02-18T05:32:55.548Z,1010.37
2023-02-18T05:33:55.538Z,1010.31
2023-02-18T05:34:55.523Z,1010.33
2023-02-18T05:35:55.529Z,1010.26
2023-02-18T05:36:55.507Z,1010.29
2023-02-18T05:37:55.496Z,1010.31
2023-02-18T05:38:55.486Z,1010.27
2023-02-18T05:39:55.466Z,1010.28
2023-02-18T05:40:55.456Z,1010.29
2023-02-18T05:41:55.478Z,1010.27
2023-02-18T05:42:55.441Z,1010.35
2023-02-18T05:43:55.440Z,1010.27
2023-02-18T05:44:55.452Z,1010.28
2023-02-18T05:45:55.408Z,1010.24
2023-02-18T05:46:55.407Z,1010.33
2023-02-18T05:47:55.396Z,1010.23
2023-02-18T05:48:55.378Z,1010.25
2023-02-18T05:49:55.366Z,1010.19
2023-02-18T05:50:55.354Z,1010.24
2023-02-18T05:51:55.333Z,1010.17
2023-02-18T05:52:55.336Z,1010.24
2023-02-18T05:53:55.317Z,1010.20
2023-02-18T05:54:55.312Z,1010.32
2023-02-18T05:55:55.295Z,1010.19
2023-02-18T05:56:55.286Z,1010.27
2023-02-18T05:57:55.284Z,1010.33
2023-02-18T05:58:55.270Z,1010.17
2023-02-18T05:59:55.272Z,1010.16
2023-02-18T06:00:55.275Z,1010.23
2023-02-18T06:01:55.242Z,1010.23
2023-02-18T06:02:57.262Z,1010.19
2023-02-18T06:03:55.212Z,1010.29
2023-02-18T06:04:55.215Z,1010.29
2023-02-18T06:05:55.256Z,1010.31
2023-02-18T06:06:55.176Z,1010.32
2023-02-18T06:07:56.704Z,1010.32
2023-02-18T06:08:55.154Z,1010.33
2023-02-18T06:09:57.141Z,1010.33
2023-02-18T06:10:55.186Z,1010.34
2023-02-18T06:11:55.112Z,1010.24
2023-02-18T06:12:55.111Z,1010.32
2023-02-18T06:13:55.107Z,1010.27
2023-02-18T06:14:55.087Z,1010.29
2023-02-18T06:15:57.115Z,1010.28
2023-02-18T06:16:55.097Z,1010.26
2023-02-18T06:17:55.057Z,1010.30
2023-02-18T06:18:55.039Z,1010.32
2023-02-18T06:19:55.032Z,1010.30
2023-02-18T06:20:55.027Z,1010.24
2023-02-18T06:21:55.006Z,1010.25
2023-02-18T06:22:55.009Z,1010.25
2023-02-18T06:23:54.989Z,1010.22
2023-02-18T06:24:54.984Z,1010.27
2023-02-18T06:25:54.976Z,1010.31
2023-02-18T06:26:54.957Z,1010.23
2023-02-18T06:27:54.941Z,1010.31
2023-02-18T06:28:54.941Z,1010.23
2023-02-18T06:29:54.918Z,1010.29
2023-02-18T06:30:54.912Z,1010.23
2023-02-18T06:31:55.093Z,1010.27
2023-02-18T06:32:54.911Z,1010.31
2023-02-18T06:33:54.903Z,1010.29
2023-02-18T06:34:54.868Z,1010.31
2023-02-18T06:35:54.850Z,1010.30
2023-02-18T06:36:54.838Z,1010.36
2023-02-18T06:37:54.831Z,1010.32
2023-02-18T06:38:56.821Z,1010.23
2023-02-18T06:39:54.811Z,1010.28
2023-02-18T06:40:54.803Z,1010.32
2023-02-18T06:41:54.791Z,1010.28
2023-02-18T06:42:56.777Z,1010.24
2023-02-18T06:43:54.764Z,1010.24
2023-02-18T06:44:54.762Z,1010.29
2023-02-18T06:45:54.737Z,1010.26
2023-02-18T06:46:54.844Z,1010.25
2023-02-18T06:47:54.728Z,1010.14
2023-02-18T06:48:54.728Z,1010.15
2023-02-18T06:49:54.697Z,1010.19
2023-02-18T06:50:54.689Z,1010.19
2023-02-18T06:51:54.679Z,1010.13
2023-02-18T06:52:54.669Z,1010.15
2023-02-18T06:53:54.657Z,1010.12
2023-02-18T06:54:54.647Z,1010.10
2023-02-18T06:55:54.647Z,1010.10
2023-02-18T06:56:54.615Z,1010.10
2023-02-18T06:57:54.619Z,1010.14
2023-02-18T06:58:54.606Z,1010.16
2023-02-18T06:59:54.589Z,1010.14
2023-02-18T07:00:54.613Z,1010.18
2023-02-18T07:01:54.569Z,1010.14
2023-02-18T07:02:54.558Z,1010.19
2023-02-18T07:03:54.573Z,1010.11
2023-02-18T07:04:54.564Z,1010.19
2023-02-18T07:05:54.526Z,1010.19
2023-02-18T07:06:54.532Z,1010.14
2023-02-18T07:07:54.508Z,1010.14
2023-02-18T07:08:54.485Z,1010.17
2023-02-18T07:09:54.483Z,1010.11
2023-02-18T07:10:54.467Z,1010.13
2023-02-18T07:11:54.461Z,1010.09
2023-02-18T07:12:54.446Z,1010.04
2023-02-18T07:13:54.437Z,1010.03
2023-02-18T07:14:54.422Z,1010.06
2023-02-18T07:15:54.411Z,1010.01
2023-02-18T07:16:54.403Z,1010.07
2023-02-18T07:17:54.389Z,1010.02
2023-02-18T07:18:54.371Z,1010.05
2023-02-18T07:19:54.369Z,1009.97
2023-02-18T07:20:54.370Z,1009.99
2023-02-18T07:21:54.350Z,1010.07
2023-02-18T07:22:54.326Z,1010.04
2023-02-18T07:23:54.321Z,1010.01
2023-02-18T07:24:54.309Z,1009.98
2023-02-18T07:25:54.291Z,1010.00
2023-02-18T07:26:54.284Z,1009.91
2023-02-18T07:27:54.273Z,1009.86
2023-02-18T07:28:54.262Z,1009.82
2023-02-18T07:29:54.255Z,1009.87
2023-02-18T07:30:54.368Z,1009.87
2023-02-18T07:31:54.297Z,1009.86
2023-02-18T07:32:54.226Z,1009.84
2023-02-18T07:33:54.208Z,1009.83
2023-02-18T07:34:54.191Z,1009.93
2023-02-18T07:35:54.178Z,1009.93
2023-02-18T07:36:54.194Z,1009.95
2023-02-18T07:37:54.169Z,1009.89
2023-02-18T07:38:54.147Z,1009.84
2023-02-18T07:39:54.144Z,1009.92
2023-02-18T07:40:54.141Z,1009.84
2023-02-18T07:41:54.129Z,1009.92
2023-02-18T07:42:54.101Z,1009.85
2023-02-18T07:43:54.103Z,1009.82
2023-02-18T07:44:54.086Z,1009.83
2023-02-18T07:45:54.129Z,1009.77
2023-02-18T07:46:54.056Z,1009.80
2023-02-18T07:47:54.050Z,1009.74
2023-02-18T07:48:54.045Z,1009.70
2023-02-18T07:49:54.024Z,1009.67
2023-02-18T07:50:54.021Z,1009.66
2023-02-18T07:51:54.012Z,1009.60
2023-02-18T07:52:54.019Z,1009.68
2023-02-18T07:53:54.015Z,1009.70
2023-02-18T07:54:53.976Z,1009.70
2023-02-18T07:55:53.956Z,1009.62
2023-02-18T07:56:53.954Z,1009.62
2023-02-18T07:57:53.938Z,1009.69
2023-02-18T07:58:53.927Z,1009.67
2023-02-18T07:59:53.911Z,1009.62
2023-02-18T08:00:53.901Z,1009.65
2023-02-18T08:01:54.000Z,1009.64
2023-02-18T08:02:53.872Z,1009.66
2023-02-18T08:03:53.945Z,1009.70
2023-02-18T08:04:53.852Z,1009.65
2023-02-18T08:05:53.844Z,1009.76
2023-02-18T08:06:53.836Z,1009.72
2023-02-18T08:07:53.821Z,1009.66
2023-02-18T08:08:53.832Z,1009.74
2023-02-18T08:09:53.790Z,1009.57
2023-02-18T08:10:53.824Z,1009.61
2023-02-18T08:11:53.782Z,1009.45
2023-02-18T08:12:53.758Z,1009.50
2023-02-18T08:13:53.755Z,1009.55
2023-02-18T08:14:53.737Z,1009.53
2023-02-18T08:15:53.725Z,1009.47
2023-02-18T08:16:53.810Z,1009.41
2023-02-18T08:17:53.704Z,1009.48
2023-02-18T08:18:53.713Z,1009.37
2023-02-18T08:19:53.688Z,1009.42
2023-02-18T08:20:53.674Z,1009.38
2023-02-18T08:21:53.658Z,1009.39
2023-02-18T08:22:53.668Z,1009.36
2023-02-18T08:23:53.647Z,1009.34
2023-02-18T08:24:53.648Z,1009.34
2023-02-18T08:25:53.614Z,1009.29
2023-02-18T08:27:00.299Z,1009.32
2023-02-18T08:27:53.600Z,1009.29
2023-02-18T08:28:53.592Z,1009.29
2023-02-18T08:29:53.566Z,1009.26
2023-02-18T08:30:53.601Z,1009.30
2023-02-18T08:31:53.681Z,1009.26
2023-02-18T08:32:53.538Z,1009.28
2023-02-18T08:33:53.521Z,1009.24
2023-02-18T08:34:53.512Z,1009.16
2023-02-18T08:35:53.505Z,1009.14
2023-02-18T08:36:53.488Z,1009.18
2023-02-18T08:37:54.507Z,1009.14
2023-02-18T08:38:53.480Z,1009.16
2023-02-18T08:39:53.463Z,1009.09
2023-02-18T08:40:53.470Z,1009.16
2023-02-18T08:41:53.461Z,1009.12
2023-02-18T08:42:53.416Z,1009.13
2023-02-18T08:43:53.413Z,1009.12
2023-02-18T08:44:53.408Z,1009.10
2023-02-18T08:45:53.426Z,1009.13
2023-02-18T08:46:53.478Z,1009.15
2023-02-18T08:48:18.416Z,1009.08
2023-02-18T08:48:53.357Z,1009.10
2023-02-18T08:49:53.336Z,1009.12
2023-02-18T08:50:53.330Z,1009.17
2023-02-18T08:51:53.337Z,1009.17
2023-02-18T08:52:53.303Z,1009.17
2023-02-18T08:53:53.287Z,1009.09
2023-02-18T08:54:53.284Z,1009.17
2023-02-18T08:55:53.270Z,1009.12
2023-02-18T08:56:53.285Z,1009.06
2023-02-18T08:57:53.254Z,1009.11
2023-02-18T08:58:53.246Z,1009.14
2023-02-18T08:59:53.226Z,1009.09
2023-02-18T09:00:53.214Z,1009.08
2023-02-18T09:01:53.202Z,1009.06
2023-02-18T09:02:53.183Z,1009.07
2023-02-18T09:03:53.224Z,1009.08
2023-02-18T09:04:53.173Z,1009.03
2023-02-18T09:05:53.156Z,1009.02
2023-02-18T09:06:53.140Z,1009.03
2023-02-18T09:07:53.133Z,1008.99
2023-02-18T09:08:53.114Z,1008.94
2023-02-18T09:09:53.124Z,1008.98
2023-02-18T09:10:53.101Z,1008.92
2023-02-18T09:11:53.086Z,1008.86
2023-02-18T09:12:53.101Z,1008.83
2023-02-18T09:13:53.057Z,1008.86
2023-02-18T09:14:53.054Z,1008.80
2023-02-18T09:15:53.106Z,1008.82
2023-02-18T09:16:53.029Z,1008.79
2023-02-18T09:17:53.019Z,1008.71
2023-02-18T09:18:53.016Z,1008.73
2023-02-18T09:19:52.989Z,1008.67
2023-02-18T09:20:52.983Z,1008.67
2023-02-18T09:21:52.975Z,1008.66
2023-02-18T09:22:52.954Z,1008.61
2023-02-18T09:23:52.948Z,1008.64
2023-02-18T09:24:52.932Z,1008.66
2023-02-18T09:25:52.927Z,1008.64
2023-02-18T09:26:52.920Z,1008.59
2023-02-18T09:27:52.904Z,1008.58
2023-02-18T09:28:52.915Z,1008.54
2023-02-18T09:29:52.876Z,1008.52
2023-02-18T09:30:52.950Z,1008.54
2023-02-18T09:31:52.957Z,1008.57
2023-02-18T09:32:52.838Z,1008.68
2023-02-18T09:33:52.835Z,1008.63
2023-02-18T09:34:52.823Z,1008.52
2023-02-18T09:35:52.805Z,1008.58
2023-02-18T09:36:52.807Z,1008.57
2023-02-18T09:37:52.792Z,1008.50
2023-02-18T09:38:52.774Z,1008.50
2023-02-18T09:39:52.773Z,1008.44
2023-02-18T09:40:52.750Z,1008.54
2023-02-18T09:41:52.743Z,1008.52
2023-02-18T09:42:52.734Z,1008.41
2023-02-18T09:43:52.713Z,1008.27
2023-02-18T09:44:52.726Z,1008.21
2023-02-18T09:45:52.760Z,1008.11
2023-02-18T09:46:52.694Z,1008.06
2023-02-18T09:47:52.672Z,1008.14
2023-02-18T09:48:52.655Z,1008.22
2023-02-18T09:49:52.645Z,1008.12
2023-02-18T09:50:52.640Z,1008.08
2023-02-18T09:51:52.628Z,1008.10
2023-02-18T09:52:52.633Z,1008.06
2023-02-18T09:53:52.606Z,1007.98
2023-02-18T09:54:52.600Z,1007.95
2023-02-18T09:55:52.582Z,1007.86
2023-02-18T09:56:52.571Z,1007.86
2023-02-18T09:57:52.564Z,1007.79
2023-02-18T09:58:52.540Z,1007.83
2023-02-18T09:59:52.538Z,1007.81
2023-02-18T10:00:52.553Z,1007.78
2023-02-18T10:01:52.645Z,1007.89
2023-02-18T10:02:52.504Z,1007.86
2023-02-18T10:03:54.773Z,1007.82
2023-02-18T10:04:52.488Z,1007.76
2023-02-18T10:05:52.477Z,1007.73
2023-02-18T10:06:52.465Z,1007.74
2023-02-18T10:07:52.437Z,1007.75
2023-02-18T10:08:52.435Z,1007.69
2023-02-18T10:09:52.413Z,1007.62
2023-02-18T10:10:52.415Z,1007.63
2023-02-18T10:11:52.409Z,1007.67
2023-02-18T10:12:52.416Z,1007.66
2023-02-18T10:13:52.380Z,1007.68
2023-02-18T10:14:52.362Z,1007.69
2023-02-18T10:15:52.408Z,1007.66
2023-02-18T10:16:52.380Z,1007.62
2023-02-18T10:17:52.343Z,1007.62
2023-02-18T10:18:52.324Z,1007.62
2023-02-18T10:19:52.313Z,1007.57
2023-02-18T10:20:52.298Z,1007.54
2023-02-18T10:21:52.277Z,1007.52
2023-02-18T10:22:52.274Z,1007.43
2023-02-18T10:23:52.259Z,1007.44
2023-02-18T10:24:52.254Z,1007.44
2023-02-18T10:25:52.243Z,1007.39
2023-02-18T10:26:52.234Z,1007.31
2023-02-18T10:27:52.210Z,1007.26
2023-02-18T10:28:52.203Z,1007.21
2023-02-18T10:29:52.195Z,1007.16
2023-02-18T10:30:52.270Z,1007.19
2023-02-18T10:31:52.276Z,1007.09
2023-02-18T10:32:52.183Z,1007.10
2023-02-18T10:33:52.147Z,1007.01
2023-02-18T10:34:52.125Z,1006.89
2023-02-18T10:35:52.129Z,1006.85
2023-02-18T10:36:52.111Z,1006.80
2023-02-18T10:37:52.094Z,1006.83
2023-02-18T10:38:52.083Z,1006.75
2023-02-18T10:39:52.078Z,1006.72
2023-02-18T10:40:52.067Z,1006.71
2023-02-18T10:41:52.055Z,1006.71
2023-02-18T10:42:52.041Z,1006.65
2023-02-18T10:43:52.024Z,1006.60
2023-02-18T10:44:52.016Z,1006.53
2023-02-18T10:45:52.004Z,1006.53
2023-02-18T10:46:52.128Z,1006.48
2023-02-18T10:47:51.983Z,1006.40
2023-02-18T10:48:51.991Z,1006.41
2023-02-18T10:49:51.952Z,1006.36
2023-02-18T10:50:51.949Z,1006.31
2023-02-18T10:51:51.944Z,1006.32
2023-02-18T10:52:51.926Z,1006.26
2023-02-18T10:53:51.912Z,1006.31
2023-02-18T10:54:51.902Z,1006.25
2023-02-18T10:55:51.892Z,1006.24
2023-02-18T10:56:51.880Z,1006.20
2023-02-18T10:57:51.899Z,1006.17
2023-02-18T10:58:51.851Z,1006.16
2023-02-18T10:59:51.848Z,1006.13
2023-02-18T11:00:51.833Z,1006.14
2023-02-18T11:01:51.962Z,1006.04
2023-02-18T11:02:51.803Z,1005.99
2023-02-18T11:03:51.803Z,1005.99
2023-02-18T11:04:51.817Z,1005.88
2023-02-18T11:05:51.982Z,1005.87
2023-02-18T11:06:51.765Z,1005.85
2023-02-18T11:07:51.744Z,1005.85
2023-02-18T11:08:51.745Z,1005.86
2023-02-18T11:09:51.729Z,1005.76
2023-02-18T11:10:51.715Z,1005.74
2023-02-18T11:12:01.431Z,1005.69
2023-02-18T11:12:51.694Z,1005.62
2023-02-18T11:13:51.679Z,1005.54
2023-02-18T11:14:51.670Z,1005.52
2023-02-18T11:15:51.681Z,1005.48
2023-02-18T11:16:51.653Z,1005.45
2023-02-18T11:17:51.645Z,1005.45
2023-02-18T11:18:51.644Z,1005.45
2023-02-18T11:19:51.627Z,1005.36
2023-02-18T11:20:51.622Z,1005.33
2023-02-18T11:21:51.590Z,1005.31
2023-02-18T11:22:51.601Z,1005.32
2023-02-18T11:23:51.579Z,1005.33
2023-02-18T11:24:51.578Z,1005.27
2023-02-18T11:25:51.550Z,1005.22
2023-02-18T11:26:51.528Z,1005.19
2023-02-18T11:27:51.528Z,1005.05
2023-02-18T11:28:51.522Z,1005.03
2023-02-18T11:29:51.496Z,1005.07
2023-02-18T11:30:51.490Z,1005.08
2023-02-18T11:31:51.637Z,1005.09
2023-02-18T11:32:51.470Z,1005.09
2023-02-18T11:33:51.463Z,1005.06
2023-02-18T11:34:51.444Z,1004.96
2023-02-18T11:35:51.439Z,1005.02
2023-02-18T11:36:51.444Z,1004.94
2023-02-18T11:37:51.410Z,1004.95
2023-02-18T11:38:51.395Z,1004.93
2023-02-18T11:39:51.385Z,1004.89
2023-02-18T11:40:51.380Z,1004.83
2023-02-18T11:41:51.362Z,1004.84
2023-02-18T11:42:51.377Z,1004.79
2023-02-18T11:43:51.346Z,1004.73
2023-02-18T11:44:51.328Z,1004.67
2023-02-18T11:45:51.327Z,1004.72
2023-02-18T11:46:51.332Z,1004.60
2023-02-18T11:47:51.320Z,1004.63
2023-02-18T11:48:51.292Z,1004.45
2023-02-18T11:49:51.274Z,1004.44
2023-02-18T11:50:51.281Z,1004.38
2023-02-18T11:51:51.258Z,1004.57
2023-02-18T11:52:51.288Z,1004.49
2023-02-18T11:53:51.228Z,1004.48
2023-02-18T11:54:51.219Z,1004.37
2023-02-18T11:55:51.208Z,1004.34
2023-02-18T11:56:53.601Z,1004.30
2023-02-18T11:57:51.199Z,1004.40
2023-02-18T11:58:51.193Z,1004.34
2023-02-18T11:59:51.177Z,1004.33
2023-02-18T12:00:51.164Z,1004.28
2023-02-18T12:01:51.208Z,1004.24
2023-02-18T12:02:51.137Z,1004.15
2023-02-18T12:03:51.120Z,1004.16
2023-02-18T12:04:51.163Z,1004.10
2023-02-18T12:05:51.098Z,1004.04